Flight Track Log - Related Links

Times and Time Zones

All times are in EDT time to prevent confusion due to time zone crossing. See the GJS6221 flight status page for this flight to view local times or setup timezone preferences in your user account.

Time Position Orientation Groundspeed Altitude Reporting Facility
EDT Latitude Longitude Course Direction KTS MPH feet Rate Location/Type
Thu 07:16:54 AM 45.4333 -73.7500 174° South 140 161 1,400  Level Montreal Center
Thu 07:17:54 AM 45.4000 -73.8000 226° Southwest 190 219 3,900 2,500 Climbing Montreal Center
Thu 07:18:54 AM 45.3500 -73.8500 215° Southwest 230 265 6,400 2,600 Climbing Montreal Center
Thu 07:19:54 AM 45.2833 -73.8667 190° South 270 311 9,100 2,500 Climbing Montreal Center
Thu 07:20:54 AM 45.2000 -73.9000 196° South 300 345 11,400 2,300 Climbing Montreal Center
Thu 07:21:00 AM 44.6270 -74.1170 173° South  Level FlightAware Approximate
Thu 07:21:54 AM 45.1000 -73.8833 173° South 340 391 13,700  Level Montreal Center
Thu 07:22:00 AM 44.5292 -74.1019 174° South  Level FlightAware Approximate
Thu 07:22:54 AM 45.0000 -73.8833 180° South 360 414 15,900  Level Montreal Center
Thu 07:23:54 AM 44.9000 -73.8833 180° South 370 426 17,900 1,850 Climbing Montreal Center
Thu 07:24:54 AM 44.8000 -73.8667 173° South 390 449 19,600 1,750 Climbing Montreal Center
Thu 07:25:54 AM 44.6833 -73.8667 180° South 400 460 21,400 1,850 Climbing Montreal Center
Thu 07:26:54 AM 44.5667 -73.8500 174° South 410 472 23,300 1,650 Climbing Montreal Center
Thu 07:27:54 AM 44.4500 -73.8667 186° South 420 483 24,700 1,300 Climbing Montreal Center
Thu 07:28:54 AM 44.3333 -73.8667 180° South 440 506 25,900 1,300 Climbing Montreal Center
Thu 07:29:54 AM 44.2000 -73.8500 175° South 450 518 27,300 1,350 Climbing Montreal Center
Thu 07:30:54 AM 44.0833 -73.8500 180° South 460 529 28,600 1,150 Climbing Montreal Center
Thu 07:31:54 AM 43.9672 -73.8506 180° South 460 529 29,600 950 Climbing Boston Center
Thu 07:32:54 AM 43.8319 -73.8417 177° South 471 542 30,500 800 Climbing Boston Center
Thu 07:33:54 AM 43.6964 -73.8386 179° South 482 555 31,200 650 Climbing Boston Center
Thu 07:34:54 AM 43.5528 -73.8353 179° South 494 568 31,800 400 Climbing Boston Center
Thu 07:35:54 AM 43.4069 -73.8261 177° South 516 594 32,000 -300 Climbing Boston Center
Thu 07:36:54 AM 43.2589 -73.8228 179° South 522 601 31,200 -1,500 Descending Boston Center
Thu 07:37:54 AM 43.1172 -73.8197 179° South 527 606 29,000 -2,100 Descending Boston Center
Thu 07:38:54 AM 42.9839 -73.8167 179° South 510 587 27,000 -1,909 Descending Boston Center
Thu 07:40:06 AM 42.8611 -73.8111 178° South 472 543 24,800 -2,136 Descending Boston Center
Thu 07:41:06 AM 42.7194 -73.7994 177° South 439 505 22,300 -1,400 Descending Boston Center
Thu 07:42:06 AM 42.6050 -73.7800 173° South 434 499 22,000 -150 Descending Boston Center
Thu 07:43:06 AM 42.4992 -73.7553 170° South 407 468 22,000  Level Boston Center
Thu 07:44:06 AM 42.3908 -73.7333 171° South 397 457 22,000 -750 Level Boston Center
Thu 07:45:06 AM 42.2786 -73.7111 172° South 403 464 20,500 -1,550 Descending Boston Center
Thu 07:46:06 AM 42.1642 -73.6864 171° South 411 473 18,900 -1,250 Descending Boston Center
Thu 07:47:06 AM 42.0603 -73.6619 170° South 411 473 18,000 -550 Descending Boston Center
Thu 07:48:06 AM 41.9481 -73.6375 171° South 380 437 17,800 -950 Descending Boston Center
Thu 07:49:06 AM 41.8567 -73.6192 172° South 375 432 16,100 -1,750 Descending Boston Center
Thu 07:50:06 AM 41.7522 -73.6394 188° South 355 409 14,300 -1,636 Descending Boston Center
Thu 07:51:07 AM 41.6683 -73.6711 196° South 350 403 12,800 -1,584 Descending Boston Center
Thu 07:52:11 AM 41.5500 -73.7167 196° South 334 384 11,000 -1,412 Descending New York TRACON
Thu 07:53:06 AM 41.4833 -73.7333 191° South 295 339 10,000 -1,043 Descending New York TRACON
Thu 07:54:06 AM 41.4167 -73.7667 201° Southwest 279 321 9,000 -1,000 Descending New York TRACON
Thu 07:55:00 AM 41.3500 -73.7833 191° South 293 337 8,100 -556 Descending New York TRACON
Thu 07:55:54 AM 41.2833 -73.7333 151° Southeast 285 328 8,000 -700 Descending New York TRACON
Thu 07:57:00 AM 41.2000 -73.6833 156° South 281 323 6,700 -1,381 Descending New York TRACON
Thu 07:58:00 AM 41.1333 -73.6500 159° South 276 318 5,100 -1,421 Descending New York TRACON
Thu 07:58:54 AM 41.0667 -73.6500 180° South 268 308 4,000 -579 Descending New York TRACON
Thu 07:59:54 AM 41.0167 -73.6833 207° Southwest 240 276 4,000 -300 Level New York TRACON
Thu 08:00:54 AM 40.9500 -73.7333 210° Southwest 232 267 3,400 -600 Descending New York TRACON
Thu 08:01:54 AM 40.9000 -73.7667 207° Southwest 200 230 2,800 -600 Descending New York TRACON

Login

Don't have an account? Register now (free) for customized features, flight alerts, and more!